Time;durP1;ratioP1;P1;durP2;ratioP2;P2;SDS_P1;SDS_P2;PMS_P1;PMS_P2;Temp;Humidity;BMP_temperature;BMP_pressure;BME280_temperature;BME280_humidity;BME280_pressure;Samples;Min_cycle;Max_cycle;Signal;HPM_P1;HPM_P2
2021/07/25 00:01:47;;;;;;;0.70;0.60;;;;;;;18.25;100.00;-21176.81;5043779;28;20939;-73
2021/07/25 00:04:15;;;;;;;0.70;0.60;;;;;;;18.30;100.00;-21178.06;5047647;28;20450;-73
2021/07/25 00:06:43;;;;;;;0.70;0.60;;;;;;;18.35;100.00;-21179.56;5041618;28;20452;-73
2021/07/25 00:09:10;;;;;;;0.70;0.60;;;;;;;18.41;100.00;-21180.94;5027972;28;20866;-73
2021/07/25 00:11:37;;;;;;;0.70;0.60;;;;;;;18.45;100.00;-21182.03;5026689;28;20488;-73
2021/07/25 00:14:05;;;;;;;0.70;0.60;;;;;;;18.53;100.00;-21184.22;5028168;28;20491;-73
2021/07/25 00:16:33;;;;;;;0.70;0.70;;;;;;;18.53;100.00;-21184.22;5027973;28;20832;-73
2021/07/25 00:19:00;;;;;;;0.70;0.67;;;;;;;18.51;100.00;-21183.66;5030477;28;20800;-73
2021/07/25 00:21:27;;;;;;;0.70;0.60;;;;;;;18.57;100.00;-21185.44;5047928;28;21936;-73
2021/07/25 00:23:58;;;;;;;0.70;0.70;;;;;;;18.61;100.00;-21186.28;5047645;28;20501;-73
2021/07/25 00:26:26;;;;;;;0.70;0.70;;;;;;;18.57;100.00;-21185.31;5045801;28;20443;-73
2021/07/25 00:28:55;;;;;;;0.77;0.70;;;;;;;18.51;100.00;-21183.81;5046077;28;20448;-73
2021/07/25 00:31:24;;;;;;;0.70;0.70;;;;;;;18.51;100.00;-21183.66;5042715;28;20471;-73
2021/07/25 00:33:51;;;;;;;0.70;0.63;;;;;;;18.48;100.00;-21182.97;5029578;28;20991;-73
2021/07/25 00:36:37;;;;;;;0.70;0.70;;;;;;;18.54;100.00;-21184.50;5045861;28;20979;-73
2021/07/25 00:39:10;;;;;;;0.70;0.60;;;;;;;18.57;100.00;-21185.31;5046245;28;20475;-73
2021/07/25 00:41:38;;;;;;;0.70;0.60;;;;;;;18.52;100.00;-21183.94;5044402;28;20932;-73
2021/07/25 00:44:06;;;;;;;0.70;0.70;;;;;;;18.55;100.00;-21184.75;5029432;28;20463;-73
2021/07/25 00:46:35;;;;;;;0.70;0.70;;;;;;;18.57;100.00;-21185.31;5045775;28;20851;-73
2021/07/25 00:49:03;;;;;;;0.70;0.60;;;;;;;18.51;100.00;-21183.81;5045952;28;20468;-73
2021/07/25 00:51:31;;;;;;;0.70;0.60;;;;;;;18.55;100.00;-21184.75;5039460;28;20504;-73
2021/07/25 00:54:02;;;;;;;0.70;0.67;;;;;;;18.54;100.00;-21184.50;5046154;28;20478;-73
2021/07/25 00:56:30;;;;;;;0.70;0.60;;;;;;;18.56;100.00;-21185.03;5046189;28;20439;-73
2021/07/25 00:58:58;;;;;;;0.73;0.70;;;;;;;18.57;100.00;-21185.31;5040108;28;20523;-74
2021/07/25 01:01:31;;;;;;;0.70;0.70;;;;;;;18.59;100.00;-21186.00;5027097;28;20477;-73
2021/07/25 01:04:13;;;;;;;0.70;0.60;;;;;;;18.53;100.00;-21184.34;5028030;28;20534;-73
2021/07/25 01:06:58;;;;;;;0.70;0.60;;;;;;;18.57;100.00;-21185.31;5026166;28;21059;-73
2021/07/25 01:09:39;;;;;;;0.70;0.60;;;;;;;18.49;100.00;-21183.25;5012426;28;20481;-73
2021/07/25 01:12:16;;;;;;;0.70;0.70;;;;;;;18.59;100.00;-21185.84;5047283;28;20486;-73
2021/07/25 01:14:44;;;;;;;0.70;0.70;;;;;;;18.65;100.00;-21187.38;5046015;28;20455;-73
2021/07/25 01:17:36;;;;;;;0.70;0.70;;;;;;;18.69;100.00;-21188.59;5032060;28;20822;-73
2021/07/25 01:20:08;;;;;;;0.70;0.60;;;;;;;18.71;100.00;-21189.00;5047190;28;20458;-73
2021/07/25 01:22:38;;;;;;;0.70;0.63;;;;;;;18.65;100.00;-21187.50;5045677;28;20463;-73
2021/07/25 01:25:27;;;;;;;0.70;0.70;;;;;;;18.62;100.00;-21186.69;5046204;28;20465;-73
2021/07/25 01:27:58;;;;;;;0.70;0.63;;;;;;;18.63;100.00;-21186.97;5045875;28;20530;-73
2021/07/25 01:30:30;;;;;;;0.70;0.60;;;;;;;18.59;100.00;-21186.00;5047702;28;21001;-73
2021/07/25 01:33:01;;;;;;;0.70;0.67;;;;;;;18.64;100.00;-21187.22;5049485;28;20457;-73
2021/07/25 01:35:31;;;;;;;0.70;0.60;;;;;;;18.71;100.00;-21189.00;5041849;28;20995;-73
2021/07/25 01:37:59;;;;;;;0.73;0.73;;;;;;;18.70;100.00;-21188.88;5030718;28;20967;-73
2021/07/25 01:40:27;;;;;;;0.70;0.70;;;;;;;18.74;100.00;-21189.97;5030309;28;20875;-73
2021/07/25 01:42:55;;;;;;;0.70;0.70;;;;;;;18.75;100.00;-21190.25;5030836;28;20462;-73
2021/07/25 01:45:35;;;;;;;0.70;0.60;;;;;;;18.75;100.00;-21190.25;5029386;28;20447;-73
2021/07/25 01:48:03;;;;;;;0.70;0.60;;;;;;;18.67;100.00;-21188.06;5028724;28;20464;-73
2021/07/25 01:50:31;;;;;;;0.70;0.60;;;;;;;18.65;100.00;-21187.50;5012390;28;20470;-73
2021/07/25 01:52:59;;;;;;;0.70;0.60;;;;;;;18.60;100.00;-21186.13;5042634;28;20458;-73
2021/07/25 01:55:27;;;;;;;0.70;0.70;;;;;;;18.53;100.00;-21184.22;5048953;28;20526;-73
2021/07/25 01:57:54;;;;;;;0.70;0.60;;;;;;;18.44;100.00;-21181.88;5035236;28;20463;-73
2021/07/25 02:00:22;;;;;;;0.70;0.70;;;;;;;18.43;100.00;-21181.47;5046177;28;20476;-73
2021/07/25 02:03:18;;;;;;;0.70;0.70;;;;;;;18.34;100.00;-21179.28;5048895;28;20453;-72
2021/07/25 02:05:48;;;;;;;0.73;0.70;;;;;;;18.27;100.00;-21177.38;5048400;28;20989;-73
2021/07/25 02:08:17;;;;;;;0.70;0.60;;;;;;;18.18;100.00;-21174.78;5031789;28;20471;-73
2021/07/25 02:10:50;;;;;;;0.70;0.63;;;;;;;18.10;100.00;-21172.72;5048425;28;20825;-73
2021/07/25 02:13:19;;;;;;;0.80;0.70;;;;;;;18.03;100.00;-21170.78;5050031;28;20954;-73
2021/07/25 02:15:47;;;;;;;0.70;0.70;;;;;;;18.04;100.00;-21171.06;5048597;28;20465;-73
2021/07/25 02:18:14;;;;;;;0.70;0.67;;;;;;;18.04;100.00;-21171.06;5049637;28;20440;-73
2021/07/25 02:20:42;;;;;;;0.70;0.60;;;;;;;17.98;100.00;-21169.56;5048405;28;20520;-73
2021/07/25 02:23:10;;;;;;;0.70;0.70;;;;;;;18.01;100.00;-21170.25;5049572;28;20486;-74
2021/07/25 02:25:39;;;;;;;0.70;0.70;;;;;;;18.03;100.00;-21170.94;5031747;28;20558;-73
2021/07/25 02:28:07;;;;;;;0.70;0.70;;;;;;;18.08;100.00;-21172.16;5036988;28;20485;-73
2021/07/25 02:30:35;;;;;;;0.70;0.60;;;;;;;18.06;100.00;-21171.63;5030368;28;20460;-73
2021/07/25 02:33:03;;;;;;;0.70;0.70;;;;;;;18.16;100.00;-21174.34;5034376;28;20506;-73
2021/07/25 02:35:30;;;;;;;0.70;0.70;;;;;;;18.15;100.00;-21174.09;5045615;28;20957;-73
2021/07/25 02:37:57;;;;;;;0.80;0.70;;;;;;;18.13;100.00;-21173.53;5048206;28;20452;-73
2021/07/25 02:40:26;;;;;;;0.70;0.60;;;;;;;18.13;100.00;-21173.53;5047904;28;20532;-72
2021/07/25 02:42:53;;;;;;;0.70;0.60;;;;;;;18.15;100.00;-21174.09;5048191;28;20511;-73
2021/07/25 02:45:20;;;;;;;0.70;0.60;;;;;;;18.04;100.00;-21171.22;5049271;28;20449;-73
2021/07/25 02:47:47;;;;;;;0.70;0.70;;;;;;;17.89;100.00;-21167.09;5044261;28;20463;-72
2021/07/25 02:50:14;;;;;;;0.80;0.70;;;;;;;17.79;100.00;-21164.50;5047101;28;20461;-72
2021/07/25 02:52:41;;;;;;;0.70;0.60;;;;;;;17.69;100.00;-21161.63;5049025;28;20537;-72
2021/07/25 02:55:12;;;;;;;0.70;0.63;;;;;;;17.60;100.00;-21159.41;5047657;28;20495;-72
2021/07/25 02:57:40;;;;;;;0.93;0.83;;;;;;;17.45;100.00;-21155.16;5049145;28;20447;-73
2021/07/25 03:00:08;;;;;;;0.80;0.80;;;;;;;17.36;100.00;-21152.84;5038638;28;20451;-72
2021/07/25 03:02:37;;;;;;;0.70;0.60;;;;;;;17.26;100.00;-21150.09;5018749;28;20473;-73
2021/07/25 03:05:06;;;;;;;0.70;0.60;;;;;;;17.07;100.00;-21145.03;5045049;28;20455;-72
2021/07/25 03:07:37;;;;;;;0.70;0.60;;;;;;;17.00;100.00;-21143.22;5047455;28;20479;-73
2021/07/25 03:10:08;;;;;;;0.70;0.70;;;;;;;16.90;100.00;-21140.63;5047292;28;20457;-74
2021/07/25 03:12:34;;;;;;;0.70;0.60;;;;;;;16.87;100.00;-21139.81;5047483;28;20977;-73
2021/07/25 03:15:04;;;;;;;0.90;0.90;;;;;;;16.84;100.00;-21138.97;5048644;28;20458;-72
2021/07/25 03:17:31;;;;;;;0.70;0.60;;;;;;;16.82;100.00;-21138.44;5048334;28;20964;-73
2021/07/25 03:19:58;;;;;;;0.80;0.70;;;;;;;16.77;100.00;-21137.06;5048674;28;20443;-73
2021/07/25 03:22:25;;;;;;;0.80;0.80;;;;;;;16.64;100.00;-21133.50;5048529;28;20454;-74
2021/07/25 03:24:52;;;;;;;0.70;0.70;;;;;;;16.57;100.00;-21131.72;5048476;28;20488;-73
2021/07/25 03:27:28;;;;;;;0.70;0.60;;;;;;;16.49;100.00;-21129.50;5048759;28;20962;-73
2021/07/25 03:29:58;;;;;;;0.70;0.60;;;;;;;16.49;100.00;-21129.38;5047379;28;20514;-73
2021/07/25 03:32:27;;;;;;;0.70;0.60;;;;;;;16.37;100.00;-21126.34;5046469;28;20480;-73
2021/07/25 03:34:54;;;;;;;0.70;0.60;;;;;;;16.43;100.00;-21128.00;5048277;28;20537;-73
2021/07/25 03:37:22;;;;;;;0.70;0.70;;;;;;;16.45;100.00;-21128.28;5036647;28;20468;-73
2021/07/25 03:39:54;;;;;;;0.70;0.70;;;;;;;16.39;100.00;-21126.75;5028535;28;20946;-73
2021/07/25 03:42:21;;;;;;;0.70;0.70;;;;;;;16.31;100.00;-21124.69;5040182;28;20889;-73
2021/07/25 03:44:48;;;;;;;0.70;0.70;;;;;;;16.30;100.00;-21124.28;5046835;28;20460;-73
2021/07/25 03:47:16;;;;;;;0.70;0.70;;;;;;;16.33;100.00;-21125.25;5030528;28;20492;-73
2021/07/25 03:49:45;;;;;;;0.70;0.60;;;;;;;16.34;100.00;-21125.53;5047973;28;20485;-73
2021/07/25 03:52:14;;;;;;;0.70;0.60;;;;;;;16.29;100.00;-21124.16;5047347;28;20477;-74
2021/07/25 03:54:42;;;;;;;0.70;0.60;;;;;;;16.22;100.00;-21122.22;5035269;28;20494;-74
2021/07/25 03:57:10;;;;;;;0.80;0.73;;;;;;;16.28;100.00;-21123.75;5034154;28;20457;-74
2021/07/25 03:59:39;;;;;;;0.70;0.70;;;;;;;16.38;100.00;-21126.63;5047995;28;20848;-73
2021/07/25 04:02:06;;;;;;;0.70;0.70;;;;;;;16.46;100.00;-21128.69;5033594;28;20461;-73
2021/07/25 04:04:33;;;;;;;0.70;0.70;;;;;;;16.46;100.00;-21128.53;5028125;28;20456;-73
2021/07/25 04:07:02;;;;;;;0.80;0.70;;;;;;;16.43;100.00;-21127.88;5034452;28;20538;-73
2021/07/25 04:09:28;;;;;;;0.70;0.70;;;;;;;16.41;100.00;-21127.44;5046517;28;20471;-73
2021/07/25 04:11:56;;;;;;;0.70;0.60;;;;;;;16.35;100.00;-21125.81;5045636;28;21211;-73
2021/07/25 04:14:24;;;;;;;0.70;0.60;;;;;;;16.37;100.00;-21126.34;5047678;28;20489;-74
2021/07/25 04:16:51;;;;;;;0.80;0.70;;;;;;;16.36;100.00;-21126.06;5046402;28;20958;-73
2021/07/25 04:19:20;;;;;;;0.70;0.70;;;;;;;16.40;100.00;-21127.16;5043394;28;20513;-73
2021/07/25 04:21:47;;;;;;;0.70;0.60;;;;;;;16.40;100.00;-21127.16;5030191;28;20487;-73
2021/07/25 04:24:16;;;;;;;0.70;0.60;;;;;;;16.45;100.00;-21128.28;5046326;28;20461;-73
2021/07/25 04:26:43;;;;;;;0.70;0.60;;;;;;;16.50;100.00;-21129.78;5047867;28;20994;-73
2021/07/25 04:29:10;;;;;;;0.80;0.73;;;;;;;16.60;100.00;-21132.53;5040849;28;20516;-73
2021/07/25 04:31:38;;;;;;;0.70;0.70;;;;;;;16.61;100.00;-21132.66;5036499;28;20467;-73
2021/07/25 04:34:05;;;;;;;0.70;0.63;;;;;;;16.67;100.00;-21134.44;5009775;28;20483;-74
2021/07/25 04:36:33;;;;;;;0.70;0.70;;;;;;;16.70;100.00;-21135.13;5010017;28;20484;-73
2021/07/25 04:39:03;;;;;;;0.70;0.60;;;;;;;16.71;100.00;-21135.41;5027707;28;20941;-73
2021/07/25 04:41:36;;;;;;;0.70;0.70;;;;;;;16.77;100.00;-21136.94;5031856;28;20504;-73
2021/07/25 04:44:07;;;;;;;0.70;0.70;;;;;;;16.86;100.00;-21139.41;5042468;28;20961;-73
2021/07/25 04:46:37;;;;;;;0.70;0.60;;;;;;;16.87;100.00;-21139.81;5009443;28;20468;-74
2021/07/25 04:49:12;;;;;;;0.70;0.70;;;;;;;16.95;100.00;-21141.72;5027139;28;20559;-73
2021/07/25 04:51:41;;;;;;;0.70;0.70;;;;;;;16.97;100.00;-21142.28;5025788;28;20470;-73
2021/07/25 04:54:10;;;;;;;0.70;0.70;;;;;;;16.98;100.00;-21142.56;5026263;28;20963;-73
2021/07/25 04:56:57;;;;;;;0.70;0.70;;;;;;;17.01;100.00;-21143.50;5046049;28;20481;-73
2021/07/25 04:59:27;;;;;;;0.70;0.60;;;;;;;17.10;100.00;-21145.84;5047263;28;20459;-74
2021/07/25 05:02:00;;;;;;;0.70;0.70;;;;;;;17.29;100.00;-21151.06;5032322;28;20470;-72
2021/07/25 05:04:29;;;;;;;0.70;0.60;;;;;;;17.31;100.00;-21151.47;5027672;28;20455;-73
2021/07/25 05:06:56;;;;;;;0.70;0.60;;;;;;;17.32;100.00;-21151.88;5029598;28;20556;-73
2021/07/25 05:09:27;;;;;;;0.70;0.70;;;;;;;17.41;100.00;-21154.06;5029454;28;21002;-72
2021/07/25 05:12:00;;;;;;;0.70;0.70;;;;;;;17.43;100.00;-21154.75;5031561;28;20514;-73
2021/07/25 05:14:31;;;;;;;0.73;0.70;;;;;;;17.53;100.00;-21157.38;5013809;28;20885;-73
2021/07/25 05:17:02;;;;;;;0.70;0.70;;;;;;;17.51;100.00;-21156.81;5030197;28;20453;-73
2021/07/25 05:19:46;;;;;;;0.70;0.60;;;;;;;17.58;100.00;-21158.88;5041319;28;20825;-73
2021/07/25 05:22:25;;;;;;;0.80;0.80;;;;;;;17.74;100.00;-21163.13;5051065;28;20453;-72
2021/07/25 05:24:54;;;;;;;0.73;0.67;;;;;;;17.79;100.00;-21164.34;5049016;28;20478;-72
2021/07/25 05:27:23;;;;;;;0.70;0.60;;;;;;;17.96;100.00;-21168.88;5041618;28;20474;-72
2021/07/25 05:29:52;;;;;;;0.70;0.60;;;;;;;17.95;100.00;-21168.59;5030391;28;20937;-73
2021/07/25 05:32:21;;;;;;;0.70;0.70;;;;;;;17.97;100.00;-21169.16;5044347;28;20479;-73
2021/07/25 05:34:49;;;;;;;0.70;0.60;;;;;;;18.02;100.00;-21170.53;5029390;28;20508;-73
2021/07/25 05:37:16;;;;;;;0.70;0.70;;;;;;;18.15;100.00;-21174.09;5030719;28;20479;-73
2021/07/25 05:39:43;;;;;;;0.70;0.70;;;;;;;18.23;100.00;-21176.28;5030742;28;20513;-73
2021/07/25 05:42:10;;;;;;;0.70;0.60;;;;;;;18.24;100.00;-21176.56;5013135;28;20460;-72
2021/07/25 05:44:39;;;;;;;0.90;0.90;;;;;;;18.23;100.00;-21176.28;5030473;28;20466;-72
2021/07/25 05:47:09;;;;;;;0.70;0.60;;;;;;;18.30;100.00;-21178.19;5030816;28;20458;-72
2021/07/25 05:49:36;;;;;;;0.70;0.60;;;;;;;18.50;100.00;-21183.41;5050410;28;20477;-72
2021/07/25 05:52:05;;;;;;;0.70;0.60;;;;;;;18.48;100.00;-21182.84;5049206;28;20589;-73
2021/07/25 05:54:32;;;;;;;0.60;0.50;;;;;;;18.50;100.00;-21183.41;5048775;28;20474;-72
2021/07/25 05:56:59;;;;;;;0.70;0.70;;;;;;;18.64;100.00;-21187.22;5048737;28;20553;-73
2021/07/25 05:59:26;;;;;;;0.70;0.70;;;;;;;18.66;100.00;-21187.78;5049088;28;20521;-73
2021/07/25 06:01:54;;;;;;;0.70;0.70;;;;;;;18.66;100.00;-20926.97;5048904;28;21019;-73
2021/07/25 06:04:23;;;;;;;0.70;0.60;;;;;;;18.74;100.00;-20573.91;5047242;28;20977;-73
2021/07/25 06:06:50;;;;;;;0.90;0.90;;;;;;;18.88;100.00;-20095.31;5049380;28;20451;-73
2021/07/25 06:09:17;;;;;;;0.70;0.70;;;;;;;18.95;100.00;-19584.09;5050011;28;20466;-73
2021/07/25 06:11:48;;;;;;;0.70;0.70;;;;;;;18.97;100.00;-18967.47;5021085;28;20807;-73
2021/07/25 06:14:15;;;;;;;0.80;0.70;;;;;;;19.16;100.00;-18202.13;5028982;28;20561;-73
2021/07/25 06:16:42;;;;;;;0.70;0.60;;;;;;;19.29;100.00;-17424.66;5028858;28;20890;-73
2021/07/25 06:19:11;;;;;;;0.70;0.70;;;;;;;19.36;100.00;-16424.00;5028741;28;20559;-73
2021/07/25 06:21:38;;;;;;;0.70;0.60;;;;;;;19.39;100.00;-15491.09;5036487;28;20466;-73
2021/07/25 06:24:05;;;;;;;0.80;0.70;;;;;;;19.46;100.00;-14596.59;5048340;28;20455;-73
2021/07/25 06:26:33;;;;;;;0.73;0.70;;;;;;;19.63;100.00;-13631.75;5049136;28;20973;-73
2021/07/25 06:29:00;;;;;;;0.70;0.60;;;;;;;19.65;100.00;-12732.94;5050110;28;20894;-73
2021/07/25 06:31:27;;;;;;;0.80;0.80;;;;;;;19.71;100.00;-11976.97;5049676;28;20456;-73
2021/07/25 06:33:54;;;;;;;0.77;0.77;;;;;;;19.77;100.00;-10912.31;5049669;28;20816;-74
2021/07/25 06:36:24;;;;;;;0.70;0.60;;;;;;;19.86;100.00;-9979.84;5049093;28;20513;-73
2021/07/25 06:38:54;;;;;;;0.70;0.70;;;;;;;20.15;100.00;-8410.31;5036407;28;20571;-73
2021/07/25 06:41:21;;;;;;;0.70;0.60;;;;;;;20.16;100.00;-7496.31;5031310;28;20462;-73
2021/07/25 06:43:49;;;;;;;0.70;0.60;;;;;;;20.28;100.00;-6434.28;5047842;28;20451;-74
2021/07/25 06:46:18;;;;;;;0.70;0.60;;;;;;;20.39;100.00;-5504.34;5038138;28;20976;-73
2021/07/25 06:48:53;;;;;;;0.70;0.70;;;;;;;20.38;100.00;-4964.94;5037041;28;20460;-74
2021/07/25 06:51:20;;;;;;;0.80;0.70;;;;;;;20.54;100.00;-3990.69;5022106;28;20864;-73
2021/07/25 06:53:50;;;;;;;0.70;0.60;;;;;;;20.77;100.00;-3171.66;5030676;28;20564;-73
2021/07/25 06:56:17;;;;;;;0.70;0.70;;;;;;;20.88;100.00;-2449.44;5032326;28;20879;-73
2021/07/25 06:58:47;;;;;;;0.70;0.60;;;;;;;20.92;100.00;-2518.47;5045897;28;20500;-73
2021/07/25 07:01:16;;;;;;;0.70;0.67;;;;;;;20.84;100.00;-1981.03;5030953;28;21796;-73
2021/07/25 07:03:45;;;;;;;0.70;0.60;;;;;;;20.98;100.00;-1358.03;5042803;28;20983;-73
2021/07/25 07:06:12;;;;;;;0.70;0.67;;;;;;;21.03;100.00;-1040.09;5029101;28;20915;-72
2021/07/25 07:08:39;;;;;;;0.70;0.60;;;;;;;21.19;100.00;-718.88;5029868;28;20551;-73
2021/07/25 07:11:09;;;;;;;0.70;0.60;;;;;;;21.36;100.00;-589.72;5032608;28;20463;-74
2021/07/25 07:13:36;;;;;;;0.70;0.60;;;;;;;21.33;100.00;-1059.03;5022905;28;20825;-72
2021/07/25 07:16:04;;;;;;;0.70;0.63;;;;;;;21.36;100.00;-1430.53;5048601;28;20426;-73
2021/07/25 07:18:31;;;;;;;0.80;0.80;;;;;;;21.48;100.00;-2345.09;5042240;28;20456;-73
2021/07/25 07:20:58;;;;;;;0.70;0.70;;;;;;;21.46;100.00;-4796.94;5042062;28;20463;-72
2021/07/25 07:23:25;;;;;;;0.70;0.60;;;;;;;21.52;100.00;-7242.00;5040281;28;20900;-73
2021/07/25 07:25:55;;;;;;;0.70;0.60;;;;;;;21.60;100.00;-8910.84;5037515;28;20476;-73
2021/07/25 07:28:23;;;;;;;0.70;0.70;;;;;;;21.71;100.00;-9141.94;5029195;28;20791;-73
2021/07/25 07:30:51;;;;;;;0.70;0.60;;;;;;;21.84;100.00;-15309.56;5029561;28;20832;-73
2021/07/25 07:33:20;;;;;;;0.70;0.60;;;;;;;21.94;100.00;-20337.56;5046731;28;21010;-73
2021/07/25 07:35:48;;;;;;;0.80;0.77;;;;;;;22.01;100.00;-21277.25;5043418;28;20428;-73
2021/07/25 07:38:16;;;;;;;0.70;0.60;;;;;;;22.21;100.00;-21282.56;5032912;28;20941;-72
2021/07/25 07:40:45;;;;;;;0.70;0.60;;;;;;;22.29;100.00;-21284.75;5040134;28;20453;-73
2021/07/25 07:43:13;;;;;;;0.70;0.60;;;;;;;22.22;100.00;-21282.84;5039025;28;20451;-73
2021/07/25 07:45:43;;;;;;;0.70;0.70;;;;;;;22.41;100.00;-21288.00;5030144;28;21005;-73
2021/07/25 07:48:10;;;;;;;0.70;0.60;;;;;;;22.77;100.00;-21297.53;5047049;28;20454;-73
2021/07/25 07:50:38;;;;;;;0.70;0.70;;;;;;;22.95;100.00;-21302.44;5045556;28;20435;-73
2021/07/25 07:53:05;;;;;;;0.70;0.60;;;;;;;23.03;100.00;-21304.63;5047690;28;20471;-73
2021/07/25 07:55:33;;;;;;;0.70;0.70;;;;;;;23.22;100.00;-21309.50;5032420;28;20469;-73
2021/07/25 07:58:00;;;;;;;0.70;0.60;;;;;;;23.19;100.00;-21308.81;5027893;28;20441;-73
2021/07/25 08:00:27;;;;;;;0.70;0.70;;;;;;;23.29;100.00;-21311.41;5031141;28;20547;-72
2021/07/25 08:02:55;;;;;;;0.70;0.60;;;;;;;23.36;100.00;-21313.44;5040468;28;20816;-73
2021/07/25 08:05:24;;;;;;;0.70;0.60;;;;;;;23.27;100.00;-21310.88;5036536;28;20964;-72
2021/07/25 08:07:50;;;;;;;0.70;0.60;;;;;;;23.56;100.00;-21318.75;5038073;28;20832;-73
2021/07/25 08:10:18;;;;;;;0.70;0.60;;;;;;;24.03;100.00;-21331.25;5035166;28;20465;-73
2021/07/25 08:12:45;;;;;;;0.70;0.60;;;;;;;24.07;100.00;-21332.34;5037261;28;20457;-73
2021/07/25 08:15:15;;;;;;;0.70;0.60;;;;;;;23.95;100.00;-21328.94;5035703;28;20479;-72
2021/07/25 08:17:42;;;;;;;0.80;0.70;;;;;;;23.95;100.00;-21329.09;5036122;28;20951;-72
2021/07/25 08:20:11;;;;;;;0.70;0.60;;;;;;;24.18;100.00;-21335.06;5036915;28;20511;-72
2021/07/25 08:22:42;;;;;;;0.80;0.70;;;;;;;24.31;100.00;-21338.59;5034838;28;21031;-72
2021/07/25 08:25:10;;;;;;;0.70;0.60;;;;;;;24.44;100.00;-21342.13;5039546;28;20444;-72
2021/07/25 08:27:38;;;;;;;0.70;0.50;;;;;;;24.41;100.00;-21341.31;5019693;28;20879;-73
2021/07/25 08:30:08;;;;;;;0.70;0.60;;;;;;;24.39;100.00;-21340.78;5034605;28;20531;-72
2021/07/25 08:32:35;;;;;;;0.70;0.60;;;;;;;24.84;100.00;-21352.72;5039498;28;20464;-72
2021/07/25 08:35:03;;;;;;;0.70;0.60;;;;;;;25.01;100.00;-21357.31;5028312;28;20792;-72
2021/07/25 08:37:32;;;;;;;0.70;0.60;;;;;;;25.44;100.00;-21368.56;5026708;28;20445;-72
2021/07/25 08:40:01;;;;;;;0.70;0.50;;;;;;;25.59;100.00;-21372.50;5030940;28;20839;-72
2021/07/25 08:42:35;;;;;;;0.80;0.70;;;;;;;25.82;100.00;-21378.75;5033029;28;20452;-72
2021/07/25 08:45:04;;;;;;;0.70;0.60;;;;;;;25.97;100.00;-21382.81;5038580;28;20557;-72
2021/07/25 08:47:37;;;;;;;0.70;0.50;;;;;;;26.25;100.00;-21390.25;5021278;28;20463;-72
2021/07/25 08:50:07;;;;;;;0.70;0.60;;;;;;;26.25;100.00;-21390.13;5035431;28;20452;-73
2021/07/25 08:52:37;;;;;;;0.70;0.50;;;;;;;26.14;100.00;-21387.13;5034951;28;20449;-73
2021/07/25 08:55:07;;;;;;;0.70;0.50;;;;;;;26.42;100.00;-21394.72;5037098;28;20472;-70
2021/07/25 08:57:36;;;;;;;0.70;0.50;;;;;;;27.08;100.00;-21412.03;5034895;28;20479;-73
2021/07/25 09:00:05;;;;;;;0.70;0.50;;;;;;;27.11;100.00;-21412.84;5036067;28;20538;-70
2021/07/25 09:02:32;;;;;;;0.70;0.50;;;;;;;27.31;100.00;-21418.25;5043642;28;21308;-70
2021/07/25 09:05:00;;;;;;;0.70;0.50;;;;;;;27.80;100.00;-21431.09;5046553;28;20510;-72
2021/07/25 09:07:29;;;;;;;0.70;0.50;;;;;;;27.40;100.00;-21420.69;5045271;28;20558;-72
2021/07/25 09:10:00;;;;;;;0.70;0.50;;;;;;;27.69;100.00;-21428.25;5046236;28;20460;-70
2021/07/25 09:12:30;;;;;;;0.80;0.60;;;;;;;27.57;100.00;-21425.16;5047121;28;20456;-71
2021/07/25 09:15:00;;;;;;;0.70;0.50;;;;;;;28.19;100.00;-21441.50;5037216;28;20479;-70
2021/07/25 09:17:28;;;;;;;0.70;0.50;;;;;;;28.55;100.00;-21450.94;5025714;28;20471;-70
2021/07/25 09:20:15;;;;;;;0.70;0.50;;;;;;;29.09;100.00;-21465.38;5035588;28;20522;-71
2021/07/25 09:22:58;;;;;;;0.70;0.50;;;;;;;28.25;100.00;-21443.09;5026794;28;20452;-70
2021/07/25 09:25:33;;;;;;;0.70;0.50;;;;;;;29.41;100.00;-21473.59;5044437;28;20459;-73
2021/07/25 09:28:20;;;;;;;0.70;0.50;;;;;;;29.37;100.00;-21472.78;5019824;28;20471;-72
2021/07/25 09:30:47;;;;;;;0.70;0.50;;;;;;;29.83;100.00;-21484.91;5045800;28;20931;-72
2021/07/25 09:33:23;;;;;;;0.70;0.50;;;;;;;29.78;100.00;-21483.56;5025598;28;20468;-72
2021/07/25 09:35:50;;;;;;;0.70;0.50;;;;;;;29.80;100.00;-21484.09;5026136;28;20812;-69
2021/07/25 09:38:19;;;;;;;0.80;0.50;;;;;;;29.98;100.00;-21488.81;5042445;28;20457;-70
2021/07/25 09:40:48;;;;;;;0.70;0.50;;;;;;;30.91;100.00;-21513.28;5026603;28;20526;-70
2021/07/25 09:43:16;;;;;;;0.80;0.50;;;;;;;30.41;100.00;-21500.09;5040225;28;20448;-72
2021/07/25 09:45:58;;;;;;;0.80;0.50;;;;;;;30.36;100.00;-21498.75;5032486;28;21008;-72
2021/07/25 09:48:27;;;;;;;0.80;0.50;;;;;;;30.01;100.00;-21489.47;5032928;28;20462;-70
2021/07/25 09:50:57;;;;;;;0.80;0.50;;;;;;;28.23;100.00;-21442.44;5028081;28;20492;-70
2021/07/25 09:53:44;;;;;;;0.80;0.50;;;;;;;27.59;100.00;-21425.56;5038649;28;20477;-70
2021/07/25 09:56:14;;;;;;;0.80;0.50;;;;;;;27.06;100.00;-21411.50;5029201;28;20892;-72
2021/07/25 09:58:43;;;;;;;0.70;0.50;;;;;;;26.48;100.00;-21396.34;5029167;28;20463;-72
2021/07/25 10:01:09;;;;;;;0.70;0.50;;;;;;;26.55;100.00;-21397.97;5030234;28;20485;-72
2021/07/25 10:03:37;;;;;;;0.70;0.50;;;;;;;26.13;100.00;-21386.88;5049756;28;20446;-72
2021/07/25 10:06:21;;;;;;;0.70;0.50;;;;;;;25.89;100.00;-21380.63;5048728;28;20543;-72
2021/07/25 10:09:07;;;;;;;0.70;0.50;;;;;;;25.62;100.00;-21373.31;5047846;28;20956;-72
2021/07/25 10:11:38;;;;;;;0.70;0.50;;;;;;;25.64;100.00;-21374.00;5032542;28;20467;-72
2021/07/25 10:14:05;;;;;;;0.70;0.60;;;;;;;25.82;100.00;-21378.75;5029232;28;20468;-73
2021/07/25 10:16:33;;;;;;;0.70;0.60;;;;;;;25.36;100.00;-21366.41;5031646;28;20464;-72
2021/07/25 10:19:03;;;;;;;0.70;0.60;;;;;;;25.19;100.00;-21361.94;5028507;28;20812;-72
2021/07/25 10:21:32;;;;;;;0.70;0.53;;;;;;;24.94;100.00;-21355.28;5027824;28;20526;-72
2021/07/25 10:23:59;;;;;;;0.70;0.50;;;;;;;24.76;100.00;-21350.53;5029817;28;21010;-72
2021/07/25 10:26:28;;;;;;;0.70;0.60;;;;;;;24.86;100.00;-21353.13;5032692;28;20547;-72
2021/07/25 10:28:58;;;;;;;0.70;0.60;;;;;;;24.63;100.00;-21347.00;5046212;28;20464;-72
2021/07/25 10:31:26;;;;;;;0.70;0.60;;;;;;;24.99;100.00;-21356.78;5029780;28;20517;-72
2021/07/25 10:33:55;;;;;;;0.70;0.60;;;;;;;26.53;100.00;-21397.56;5037025;28;20529;-72
2021/07/25 10:36:23;;;;;;;0.70;0.50;;;;;;;28.30;100.00;-21444.47;5049113;28;20979;-72
2021/07/25 10:38:50;;;;;;;0.70;0.50;;;;;;;29.07;100.00;-21464.81;5048033;28;20994;-73
2021/07/25 10:41:22;;;;;;;0.70;0.50;;;;;;;30.50;100.00;-21502.41;5024171;28;20483;-72
2021/07/25 10:43:50;;;;;;;0.70;0.50;;;;;;;30.70;100.00;-21507.75;5047334;28;20518;-72
2021/07/25 10:46:21;;;;;;;0.70;0.60;;;;;;;31.88;100.00;-21538.66;5037677;28;20460;-70
2021/07/25 10:49:17;;;;;;;0.80;0.50;;;;;;;32.81;100.00;-21563.19;5048718;28;21604;-73
2021/07/25 10:51:59;;;;;;;0.80;0.50;;;;;;;32.31;100.00;-21549.94;5048486;28;20562;-72
2021/07/25 10:54:46;;;;;;;0.80;0.50;;;;;;;32.95;100.00;-21566.81;5047662;28;20483;-69
2021/07/25 10:57:14;;;;;;;0.80;0.50;;;;;;;32.43;100.00;-21553.28;5047271;28;20459;-70
2021/07/25 10:59:47;;;;;;;1.30;0.80;;;;;;;32.72;100.00;-21560.91;5047589;28;20562;-73
2021/07/25 11:02:51;;;;;;;0.80;0.60;;;;;;;32.36;100.00;-21551.25;5029709;28;20459;-73
2021/07/25 11:05:20;;;;;;;0.80;0.50;;;;;;;31.16;100.00;-21519.88;5030117;28;20460;-70
2021/07/25 11:07:57;;;;;;;1.00;0.70;;;;;;;30.12;100.00;-21492.31;5028401;28;20456;-72
2021/07/25 11:10:32;;;;;;;0.80;0.60;;;;;;;29.98;100.00;-21488.81;5028823;28;20464;-72
2021/07/25 11:13:17;;;;;;;0.80;0.50;;;;;;;29.10;100.00;-21465.50;5028404;28;20874;-70
2021/07/25 11:15:45;;;;;;;0.80;0.50;;;;;;;28.37;100.00;-21446.34;5027423;28;20481;-72
2021/07/25 11:18:32;;;;;;;0.80;0.50;;;;;;;27.81;100.00;-21431.38;5027951;28;20536;-72
2021/07/25 11:21:05;;;;;;;0.70;0.50;;;;;;;27.18;100.00;-21414.88;5037991;28;20518;-72
2021/07/25 11:23:37;;;;;;;0.70;0.50;;;;;;;26.61;100.00;-21399.59;5031488;28;20472;-71
2021/07/25 11:26:35;;;;;;;0.73;0.50;;;;;;;26.49;100.00;-21396.47;5034595;28;20478;-71
2021/07/25 11:29:05;;;;;;;0.70;0.50;;;;;;;26.60;100.00;-21399.31;5046534;28;20479;-72
2021/07/25 11:31:50;;;;;;;0.70;0.50;;;;;;;26.89;100.00;-21407.16;5045957;28;20463;-72